createdAt,value
2023-01-29T00:01:02.533Z,98683.81
2023-01-29T00:02:05.937Z,98680.84
2023-01-29T00:03:09.110Z,98690.19
2023-01-29T00:04:12.205Z,98684.56
2023-01-29T00:05:26.912Z,98692.88
2023-01-29T00:06:31.436Z,98684.28
2023-01-29T00:07:34.653Z,98692.13
2023-01-29T00:08:38.688Z,98689.22
2023-01-29T00:09:41.849Z,98690.44
2023-01-29T00:10:44.962Z,98688.47
2023-01-29T00:11:48.245Z,98692.38
2023-01-29T00:12:52.054Z,98695.84
2023-01-29T00:13:55.337Z,98692.38
2023-01-29T00:14:58.398Z,98700.97
2023-01-29T00:16:02.303Z,98693.38
2023-01-29T00:17:05.656Z,98699.25
2023-01-29T00:18:09.790Z,98701.19
2023-01-29T00:19:13.011Z,98700.97
2023-01-29T00:20:16.807Z,98705.13
2023-01-29T00:21:22.489Z,98696.56
2023-01-29T00:22:25.510Z,98697.28
2023-01-29T00:23:28.723Z,98701.22
2023-01-29T00:24:31.819Z,98712.00
2023-01-29T00:25:34.826Z,98707.34
2023-01-29T00:26:39.721Z,98706.13
2023-01-29T00:27:44.289Z,98709.06
2023-01-29T00:28:47.548Z,98712.03
2023-01-29T00:30:09.760Z,98716.91
2023-01-29T00:31:22.029Z,98717.16
2023-01-29T00:32:25.038Z,98719.34
2023-01-29T00:33:33.654Z,98718.63
2023-01-29T00:34:36.623Z,98714.97
2023-01-29T00:35:41.073Z,98713.97
2023-01-29T00:36:45.796Z,98709.56
2023-01-29T00:38:59.266Z,98715.47
2023-01-29T00:40:02.256Z,98713.22
2023-01-29T00:41:35.088Z,98720.84
2023-01-29T00:42:56.901Z,98727.00
2023-01-29T00:44:20.171Z,98722.31
2023-01-29T00:45:23.177Z,98714.97
2023-01-29T00:46:26.196Z,98722.06
2023-01-29T00:47:33.787Z,98724.28
2023-01-29T00:48:37.840Z,98722.31
2023-01-29T00:49:40.933Z,98729.94
2023-01-29T00:50:43.948Z,98727.97
2023-01-29T00:52:06.927Z,98727.47
2023-01-29T00:53:09.900Z,98724.75
2023-01-29T00:54:12.998Z,98730.94
2023-01-29T00:55:16.212Z,98736.31
2023-01-29T00:56:19.249Z,98725.53
2023-01-29T00:57:23.182Z,98724.75
2023-01-29T00:58:28.690Z,98720.13
2023-01-29T00:59:31.971Z,98725.53
2023-01-29T01:00:35.032Z,98721.34
2023-01-29T01:01:56.894Z,98718.63
2023-01-29T01:03:05.941Z,98721.09
2023-01-29T01:04:11.175Z,98716.94
2023-01-29T01:05:19.399Z,98716.66
2023-01-29T01:06:25.530Z,98716.44
2023-01-29T01:07:28.449Z,98720.37
2023-01-29T01:08:51.949Z,98718.16
2023-01-29T01:10:17.681Z,98719.87
2023-01-29T01:11:21.977Z,98715.47
2023-01-29T01:12:26.668Z,98713.00
2023-01-29T01:13:32.026Z,98722.31
2023-01-29T01:14:38.027Z,98713.00
2023-01-29T01:15:41.093Z,98715.69
2023-01-29T01:16:46.371Z,98709.06
2023-01-29T01:17:53.404Z,98707.34
2023-01-29T01:18:57.458Z,98711.00
2023-01-29T01:20:00.969Z,98717.62
2023-01-29T01:21:04.526Z,98721.78
2023-01-29T01:22:07.729Z,98725.44
2023-01-29T01:23:10.763Z,98723.72
2023-01-29T01:24:14.305Z,98720.78
2023-01-29T01:25:19.110Z,98731.28
2023-01-29T01:26:22.304Z,98721.00
2023-01-29T01:27:26.736Z,98723.94
2023-01-29T01:28:31.267Z,98721.00
2023-01-29T01:29:34.497Z,98723.19
2023-01-29T01:30:37.670Z,98724.16
2023-01-29T01:31:40.921Z,98720.94
2023-01-29T01:32:43.903Z,98732.22
2023-01-29T01:33:48.739Z,98726.56
2023-01-29T01:34:52.739Z,98730.97
2023-01-29T01:35:56.718Z,98724.84
2023-01-29T01:36:59.645Z,98721.44
2023-01-29T01:38:06.515Z,98724.38
2023-01-29T01:39:09.586Z,98725.09
2023-01-29T01:40:19.415Z,98722.91
2023-01-29T01:41:24.313Z,98719.94
2023-01-29T01:42:30.826Z,98729.25
2023-01-29T01:43:59.675Z,98730.72
2023-01-29T01:45:06.644Z,98730.47
2023-01-29T01:46:10.081Z,98739.28
2023-01-29T01:47:13.625Z,98731.94
2023-01-29T01:48:27.028Z,98728.50
2023-01-29T01:49:30.255Z,98730.97
2023-01-29T01:50:43.186Z,98736.06
2023-01-29T01:51:51.666Z,98738.28
2023-01-29T01:53:00.671Z,98749.28
2023-01-29T01:54:14.319Z,98740.69
2023-01-29T01:55:22.506Z,98738.47
2023-01-29T01:56:40.772Z,98741.91
2023-01-29T01:57:48.363Z,98733.59
2023-01-29T01:58:59.148Z,98728.63
2023-01-29T02:00:10.371Z,98727.91
2023-01-29T02:01:14.631Z,98732.81
2023-01-29T02:02:36.973Z,98736.25
2023-01-29T02:04:08.794Z,98735.50
2023-01-29T02:05:33.026Z,98739.16
2023-01-29T02:06:55.091Z,98732.09
2023-01-29T02:08:17.708Z,98730.31
2023-01-29T02:09:35.882Z,98740.06
2023-01-29T02:10:44.847Z,98744.94
2023-01-29T02:11:48.317Z,98739.28
2023-01-29T02:12:51.860Z,98733.84
2023-01-29T02:13:54.894Z,98738.00
2023-01-29T02:14:58.022Z,98741.44
2023-01-29T02:16:00.981Z,98746.81
2023-01-29T02:17:04.140Z,98747.28
2023-01-29T02:18:08.509Z,98749.03
2023-01-29T02:19:27.943Z,98748.50
2023-01-29T02:20:32.641Z,98751.44
2023-01-29T02:22:17.324Z,98745.53
2023-01-29T02:23:38.591Z,98748.47
2023-01-29T02:24:51.148Z,98746.25
2023-01-29T02:26:39.606Z,98752.13
2023-01-29T02:28:04.324Z,98746.50
2023-01-29T02:29:40.679Z,98752.09
2023-01-29T02:31:02.114Z,98752.78
2023-01-29T02:32:42.548Z,98747.62
2023-01-29T02:34:04.067Z,98753.72
2023-01-29T02:35:30.388Z,98758.59
2023-01-29T02:36:53.327Z,98751.72
2023-01-29T02:38:18.349Z,98763.19
2023-01-29T02:39:44.487Z,98765.13
2023-01-29T02:40:54.463Z,98755.84
2023-01-29T02:42:21.996Z,98758.34
2023-01-29T02:43:37.559Z,98764.19
2023-01-29T02:44:51.354Z,98762.25
2023-01-29T02:46:09.701Z,98767.88
2023-01-29T02:47:35.979Z,98767.13
2023-01-29T02:48:50.506Z,98762.25
2023-01-29T02:50:13.341Z,98768.84
2023-01-29T02:51:27.012Z,98760.78
2023-01-29T02:52:40.105Z,98764.94
2023-01-29T02:53:56.212Z,98773.25
2023-01-29T02:55:22.206Z,98772.03
2023-01-29T02:56:35.239Z,98770.06
2023-01-29T02:57:42.831Z,98769.25
2023-01-29T02:58:52.466Z,98777.84
2023-01-29T03:00:00.897Z,98782.03
2023-01-29T03:01:13.970Z,98780.06
2023-01-29T03:02:26.743Z,98777.12
2023-01-29T03:03:44.928Z,98779.31
2023-01-29T03:04:55.221Z,98769.25
2023-01-29T03:06:23.656Z,98780.50
2023-01-29T03:07:47.045Z,98778.78
2023-01-29T03:08:56.745Z,98772.66
2023-01-29T03:10:01.750Z,98775.59
2023-01-29T03:11:07.722Z,98775.59
2023-01-29T03:12:34.165Z,98774.87
2023-01-29T03:13:48.350Z,98775.59
2023-01-29T03:15:10.641Z,98777.06
2023-01-29T03:16:38.045Z,98781.50
2023-01-29T03:17:51.780Z,98779.31
2023-01-29T03:19:09.525Z,98774.22
2023-01-29T03:20:17.996Z,98781.34
2023-01-29T03:21:51.686Z,98773.53
2023-01-29T03:23:01.665Z,98777.25
2023-01-29T03:24:25.332Z,98779.47
2023-01-29T03:25:48.099Z,98779.75
2023-01-29T03:27:12.059Z,98781.00
2023-01-29T03:28:36.860Z,98783.94
2023-01-29T03:30:01.557Z,98785.66
2023-01-29T03:31:26.868Z,98784.72
2023-01-29T03:32:31.069Z,98786.72
2023-01-29T03:33:44.689Z,98792.62
2023-01-29T03:34:54.829Z,98792.38
2023-01-29T03:36:03.716Z,98781.41
2023-01-29T03:37:15.529Z,98786.34
2023-01-29T03:38:18.838Z,98788.56
2023-01-29T03:39:24.601Z,98791.25
2023-01-29T03:40:33.332Z,98790.53
2023-01-29T03:41:56.572Z,98793.03
2023-01-29T03:43:28.413Z,98798.66
2023-01-29T03:45:01.571Z,98792.56
2023-01-29T03:46:19.052Z,98793.09
2023-01-29T03:47:48.228Z,98793.12
2023-01-29T03:49:01.882Z,98797.31
2023-01-29T03:50:16.464Z,98807.38
2023-01-29T03:51:32.015Z,98805.37
2023-01-29T03:53:05.673Z,98809.31
2023-01-29T03:54:40.930Z,98812.25
2023-01-29T03:55:56.466Z,98795.13
2023-01-29T03:57:21.400Z,98798.34
2023-01-29T03:58:33.280Z,98792.94
2023-01-29T03:59:54.024Z,98790.53
2023-01-29T04:01:04.416Z,98793.00
2023-01-29T04:02:28.215Z,98798.88
2023-01-29T04:03:44.098Z,98797.88
2023-01-29T04:04:52.213Z,98800.81
2023-01-29T04:06:10.096Z,98796.94
2023-01-29T04:07:19.247Z,98803.78
2023-01-29T04:08:29.477Z,98797.41
2023-01-29T04:09:38.243Z,98798.91
2023-01-29T04:10:43.349Z,98795.72
2023-01-29T04:12:00.248Z,98796.69
2023-01-29T04:13:09.835Z,98795.00
2023-01-29T04:14:14.390Z,98796.47
2023-01-29T04:15:19.357Z,98799.47
2023-01-29T04:16:28.589Z,98804.13
2023-01-29T04:17:38.321Z,98802.66
2023-01-29T04:18:46.312Z,98800.94
2023-01-29T04:19:49.905Z,98800.94
2023-01-29T04:20:53.946Z,98800.91
2023-01-29T04:22:16.197Z,98806.56
2023-01-29T04:23:24.812Z,98808.50
2023-01-29T04:24:28.240Z,98803.34
2023-01-29T04:25:42.427Z,98800.91
2023-01-29T04:26:48.189Z,98803.87
2023-01-29T04:28:09.930Z,98802.13
2023-01-29T04:29:44.487Z,98801.41
2023-01-29T04:30:52.179Z,98785.00
2023-01-29T04:32:05.921Z,98788.19
2023-01-29T04:33:24.140Z,98794.03
2023-01-29T04:34:36.255Z,98789.19
2023-01-29T04:36:06.718Z,98797.78
2023-01-29T04:37:22.325Z,98796.03
2023-01-29T04:38:26.084Z,98798.53
2023-01-29T04:39:42.485Z,98797.06
2023-01-29T04:40:57.453Z,98797.28
2023-01-29T04:42:34.002Z,98798.25
2023-01-29T04:43:53.468Z,98801.22
2023-01-29T04:45:15.854Z,98796.34
2023-01-29T04:46:23.332Z,98798.56
2023-01-29T04:47:29.416Z,98792.41
2023-01-29T04:48:51.069Z,98799.06
2023-01-29T04:50:37.540Z,98799.53
2023-01-29T04:52:09.087Z,98799.50
2023-01-29T04:53:22.665Z,98804.91
2023-01-29T04:54:45.860Z,98806.13
2023-01-29T04:56:36.957Z,98807.13
2023-01-29T04:58:01.237Z,98805.41
2023-01-29T04:59:18.255Z,98802.50
2023-01-29T05:00:28.219Z,98799.28
2023-01-29T05:01:33.656Z,98810.03
2023-01-29T05:02:40.104Z,98795.56
2023-01-29T05:03:47.182Z,98786.53
2023-01-29T05:04:51.092Z,98800.28
2023-01-29T05:05:57.692Z,98792.97
2023-01-29T05:07:09.266Z,98791.47
2023-01-29T05:08:16.219Z,98789.25
2023-01-29T05:09:20.661Z,98797.84
2023-01-29T05:10:25.348Z,98791.41
2023-01-29T05:11:32.553Z,98790.25
2023-01-29T05:12:37.388Z,98789.47
2023-01-29T05:13:43.031Z,98792.66
2023-01-29T05:14:47.818Z,98795.38
2023-01-29T05:16:09.627Z,98796.81
2023-01-29T05:17:20.351Z,98801.75
2023-01-29T05:18:24.018Z,98798.56
2023-01-29T05:19:27.381Z,98803.44
2023-01-29T05:20:37.140Z,98797.53
2023-01-29T05:21:43.462Z,98798.03
2023-01-29T05:22:49.048Z,98786.75
2023-01-29T05:24:12.597Z,98793.62
2023-01-29T05:25:23.859Z,98796.34
2023-01-29T05:26:46.939Z,98793.62
2023-01-29T05:28:10.458Z,98787.97
2023-01-29T05:29:13.569Z,98790.44
2023-01-29T05:30:17.269Z,98796.06
2023-01-29T05:31:21.191Z,98794.13
2023-01-29T05:32:24.284Z,98793.38
2023-01-29T05:33:32.175Z,98787.25
2023-01-29T05:34:35.232Z,98796.34
2023-01-29T05:35:38.208Z,98799.28
2023-01-29T05:36:41.488Z,98796.34
2023-01-29T05:37:44.839Z,98796.34
2023-01-29T05:39:07.657Z,98800.50
2023-01-29T05:40:11.174Z,98804.19
2023-01-29T05:41:16.651Z,98801.50
2023-01-29T05:42:19.649Z,98809.38
2023-01-29T05:43:25.554Z,98798.56
2023-01-29T05:44:28.507Z,98796.09
2023-01-29T05:45:31.825Z,98793.16
2023-01-29T05:46:34.786Z,98802.97
2023-01-29T05:47:37.748Z,98802.22
2023-01-29T05:48:41.153Z,98800.03
2023-01-29T05:49:44.286Z,98798.78
2023-01-29T05:50:47.428Z,98805.44
2023-01-29T05:51:50.508Z,98815.00
2023-01-29T05:52:58.051Z,98803.22
2023-01-29T05:54:01.136Z,98805.66
2023-01-29T05:55:04.543Z,98811.31
2023-01-29T05:56:07.904Z,98807.38
2023-01-29T05:57:10.922Z,98808.12
2023-01-29T05:58:14.427Z,98802.00
2023-01-29T05:59:17.660Z,98811.31
2023-01-29T06:00:21.085Z,98807.88
2023-01-29T06:01:26.357Z,98810.81
2023-01-29T06:02:31.869Z,98810.81
2023-01-29T06:03:35.042Z,98813.75
2023-01-29T06:04:38.013Z,98811.56
2023-01-29T06:05:41.481Z,98819.16
2023-01-29T06:06:44.970Z,98815.75
2023-01-29T06:07:48.337Z,98812.06
2023-01-29T06:08:51.672Z,98807.16
2023-01-29T06:09:54.948Z,98811.06
2023-01-29T06:10:58.251Z,98821.88
2023-01-29T06:12:01.253Z,98812.06
2023-01-29T06:13:04.504Z,98812.06
2023-01-29T06:14:07.482Z,98822.34
2023-01-29T06:15:11.214Z,98817.22
2023-01-29T06:16:15.220Z,98824.31
2023-01-29T06:17:18.413Z,98829.47
2023-01-29T06:18:22.241Z,98827.25
2023-01-29T06:19:25.496Z,98828.47
2023-01-29T06:20:28.483Z,98831.69
2023-01-29T06:21:31.651Z,98837.84
2023-01-29T06:22:35.027Z,98830.47
2023-01-29T06:23:38.454Z,98836.84
2023-01-29T06:24:41.537Z,98839.03
2023-01-29T06:25:44.518Z,98833.88
2023-01-29T06:26:47.707Z,98850.78
2023-01-29T06:27:51.861Z,98845.88
2023-01-29T06:28:55.143Z,98849.59
2023-01-29T06:29:59.656Z,98845.91
2023-01-29T06:31:23.764Z,98856.69
2023-01-29T06:32:31.823Z,98861.34
2023-01-29T06:33:35.211Z,98867.47
2023-01-29T06:34:38.549Z,98867.69
2023-01-29T06:35:41.626Z,98858.88
2023-01-29T06:36:44.659Z,98864.75
2023-01-29T06:37:47.819Z,98861.34
2023-01-29T06:38:51.148Z,98859.56
2023-01-29T06:39:54.348Z,98854.94
2023-01-29T06:40:57.942Z,98859.56
2023-01-29T06:42:00.938Z,98856.63
2023-01-29T06:43:03.991Z,98872.84
2023-01-29T06:44:08.695Z,98875.34
2023-01-29T06:45:11.981Z,98872.87
2023-01-29T06:46:15.078Z,98869.44
2023-01-29T06:47:18.109Z,98865.50
2023-01-29T06:48:22.021Z,98866.06
2023-01-29T06:49:25.484Z,98871.19
2023-01-29T06:50:28.491Z,98873.91
2023-01-29T06:51:31.744Z,98877.31
2023-01-29T06:52:35.740Z,98876.81
2023-01-29T06:53:40.034Z,98867.50
2023-01-29T06:54:42.985Z,98867.75
2023-01-29T06:55:52.581Z,98875.09
2023-01-29T06:56:56.562Z,98873.34
2023-01-29T06:57:59.594Z,98870.63
2023-01-29T06:59:03.181Z,98868.66
2023-01-29T07:00:06.903Z,98870.66
2023-01-29T07:01:17.444Z,98872.63
2023-01-29T07:02:28.404Z,98872.87
2023-01-29T07:03:31.315Z,98872.63
2023-01-29T07:04:35.818Z,98862.53
2023-01-29T07:05:39.343Z,98867.25
2023-01-29T07:06:42.421Z,98863.78
2023-01-29T07:08:53.510Z,98858.63
2023-01-29T07:09:56.550Z,98865.25
2023-01-29T07:11:02.627Z,98859.34
2023-01-29T07:12:06.136Z,98862.28
2023-01-29T07:13:09.180Z,98870.41
2023-01-29T07:14:12.306Z,98864.06
2023-01-29T07:15:19.868Z,98869.66
2023-01-29T07:16:23.714Z,98871.13
2023-01-29T07:17:26.840Z,98870.16
2023-01-29T07:18:30.909Z,98867.44
2023-01-29T07:19:35.446Z,98867.66
2023-01-29T07:20:40.891Z,98867.19
2023-01-29T07:21:43.818Z,98864.03
2023-01-29T07:22:46.940Z,98865.25
2023-01-29T07:23:50.247Z,98864.53
2023-01-29T07:24:53.338Z,98858.63
2023-01-29T07:25:56.364Z,98858.16
2023-01-29T07:26:59.338Z,98855.50
2023-01-29T07:28:02.639Z,98856.47
2023-01-29T07:29:06.171Z,98856.72
2023-01-29T07:30:10.018Z,98859.94
2023-01-29T07:31:15.512Z,98851.56
2023-01-29T07:32:18.622Z,98846.16
2023-01-29T07:33:25.549Z,98851.53
2023-01-29T07:34:28.747Z,98847.88
2023-01-29T07:35:32.663Z,98854.25
2023-01-29T07:36:37.412Z,98840.72
2023-01-29T07:37:40.546Z,98846.62
2023-01-29T07:38:44.347Z,98848.09
2023-01-29T07:39:48.053Z,98843.44
2023-01-29T07:40:53.038Z,98842.44
2023-01-29T07:41:56.022Z,98844.66
2023-01-29T07:43:04.217Z,98830.94
2023-01-29T07:44:07.505Z,98833.41
2023-01-29T07:45:11.884Z,98833.41
2023-01-29T07:46:15.141Z,98835.09
2023-01-29T07:47:18.525Z,98823.09
2023-01-29T07:48:21.873Z,98821.13
2023-01-29T07:49:25.220Z,98816.47
2023-01-29T07:50:28.535Z,98823.59
2023-01-29T07:51:31.783Z,98830.22
2023-01-29T07:52:35.181Z,98827.75
2023-01-29T07:53:38.325Z,98828.97
2023-01-29T07:54:41.419Z,98843.44
2023-01-29T07:55:45.713Z,98842.97
2023-01-29T07:56:48.823Z,98850.81
2023-01-29T07:58:02.711Z,98841.78
2023-01-29T07:59:06.198Z,98840.31
2023-01-29T08:00:12.527Z,98833.94
2023-01-29T08:01:19.062Z,98822.16
2023-01-29T08:02:22.389Z,98833.47
2023-01-29T08:03:25.446Z,98830.25
2023-01-29T08:04:28.577Z,98826.81
2023-01-29T08:05:32.040Z,98827.31
2023-01-29T08:06:35.011Z,98827.81
2023-01-29T08:07:38.151Z,98831.50
2023-01-29T08:08:42.421Z,98823.12
2023-01-29T08:09:48.565Z,98831.00
2023-01-29T08:10:52.014Z,98837.38
2023-01-29T08:11:55.024Z,98828.81
2023-01-29T08:12:59.670Z,98833.47
2023-01-29T08:14:02.723Z,98836.63
2023-01-29T08:15:06.203Z,98833.69
2023-01-29T08:16:09.542Z,98830.78
2023-01-29T08:17:14.218Z,98837.88
2023-01-29T08:18:19.277Z,98834.94
2023-01-29T08:19:22.435Z,98830.00
2023-01-29T08:20:26.207Z,98831.25
2023-01-29T08:21:29.592Z,98830.00
2023-01-29T08:22:32.482Z,98837.16
2023-01-29T08:23:35.570Z,98837.66
2023-01-29T08:24:53.291Z,98845.03
2023-01-29T08:25:57.306Z,98843.28
2023-01-29T08:27:00.265Z,98844.75
2023-01-29T08:28:04.090Z,98843.06
2023-01-29T08:29:07.259Z,98842.34
2023-01-29T08:30:11.307Z,98847.25
2023-01-29T08:31:23.018Z,98850.44
2023-01-29T08:32:26.501Z,98851.91
2023-01-29T08:33:38.607Z,98856.06
2023-01-29T08:34:42.529Z,98849.19
2023-01-29T08:35:50.888Z,98855.34
2023-01-29T08:36:53.952Z,98853.38
2023-01-29T08:38:01.950Z,98858.03
2023-01-29T08:39:05.132Z,98851.66
2023-01-29T08:40:09.847Z,98855.84
2023-01-29T08:41:13.299Z,98858.06
2023-01-29T08:42:16.933Z,98862.22
2023-01-29T08:43:19.999Z,98859.28
2023-01-29T08:44:23.056Z,98862.94
2023-01-29T08:45:26.125Z,98870.56
2023-01-29T08:46:29.067Z,98862.94
2023-01-29T08:47:32.351Z,98874.97
2023-01-29T08:48:36.579Z,98870.56
2023-01-29T08:49:39.611Z,98868.34
2023-01-29T08:50:42.618Z,98868.34
2023-01-29T08:51:45.689Z,98869.06
2023-01-29T08:52:48.858Z,98875.69
2023-01-29T08:53:52.247Z,98874.22
2023-01-29T08:54:55.195Z,98883.56
2023-01-29T08:55:58.222Z,98896.31
2023-01-29T08:57:01.326Z,98880.59
2023-01-29T08:58:08.289Z,98883.31
2023-01-29T08:59:11.704Z,98885.25
2023-01-29T09:00:15.710Z,98891.16
2023-01-29T09:01:19.400Z,98898.28
2023-01-29T09:02:22.420Z,98892.62
2023-01-29T09:03:25.663Z,98901.19
2023-01-29T09:04:28.711Z,98902.66
2023-01-29T09:05:35.632Z,98910.78
2023-01-29T09:06:38.891Z,98888.22
2023-01-29T09:07:41.994Z,98901.44
2023-01-29T09:08:45.399Z,98913.22
2023-01-29T09:09:48.457Z,98904.63
2023-01-29T09:10:51.621Z,98900.44
2023-01-29T09:11:54.817Z,98903.87
2023-01-29T09:12:58.010Z,98905.84
2023-01-29T09:14:00.978Z,98910.22
2023-01-29T09:15:07.534Z,98907.78
2023-01-29T09:16:10.962Z,98904.09
2023-01-29T09:17:13.899Z,98902.38
2023-01-29T09:18:17.176Z,98901.69
2023-01-29T09:19:20.320Z,98903.13
2023-01-29T09:20:23.736Z,98909.03
2023-01-29T09:21:27.299Z,98912.66
2023-01-29T09:22:30.355Z,98909.00
2023-01-29T09:23:34.103Z,98910.97
2023-01-29T09:24:37.182Z,98910.22
2023-01-29T09:25:43.527Z,98908.25
2023-01-29T09:26:46.531Z,98905.09
2023-01-29T09:27:49.516Z,98912.69
2023-01-29T09:28:52.522Z,98906.34
2023-01-29T09:29:55.656Z,98900.69
2023-01-29T09:31:02.879Z,98905.34
2023-01-29T09:32:07.052Z,98907.06
2023-01-29T09:33:10.642Z,98910.22
2023-01-29T09:34:14.522Z,98914.13
2023-01-29T09:35:17.927Z,98921.75
2023-01-29T09:36:21.053Z,98919.81
2023-01-29T09:37:24.168Z,98917.38
2023-01-29T09:38:29.320Z,98917.59
2023-01-29T09:39:32.713Z,98918.09
2023-01-29T09:41:03.205Z,98926.19
2023-01-29T09:42:19.112Z,98926.69
2023-01-29T09:43:30.596Z,98925.94
2023-01-29T09:45:01.972Z,98922.72
2023-01-29T09:46:18.686Z,98923.94
2023-01-29T09:47:26.034Z,98922.47
2023-01-29T09:48:33.983Z,98922.47
2023-01-29T09:49:42.670Z,98926.63
2023-01-29T09:50:51.159Z,98920.47
2023-01-29T09:52:06.126Z,98929.31
2023-01-29T09:53:17.855Z,98916.81
2023-01-29T09:54:33.941Z,98923.19
2023-01-29T09:56:05.400Z,98921.47
2023-01-29T09:57:16.086Z,98919.47
2023-01-29T09:58:27.880Z,98924.88
2023-01-29T09:59:31.754Z,98926.59
2023-01-29T10:00:44.378Z,98922.44
2023-01-29T10:02:11.847Z,98928.31
2023-01-29T10:03:29.798Z,98926.59
2023-01-29T10:05:02.947Z,98923.19
2023-01-29T10:06:17.688Z,98932.50
2023-01-29T10:07:38.950Z,98927.84
2023-01-29T10:09:10.616Z,98929.06
2023-01-29T10:10:26.959Z,98924.19
2023-01-29T10:11:40.348Z,98917.06
2023-01-29T10:13:01.775Z,98926.84
2023-01-29T10:14:09.995Z,98921.47
2023-01-29T10:15:31.514Z,98921.22
2023-01-29T10:16:46.679Z,98913.63
2023-01-29T10:18:13.766Z,98920.03
2023-01-29T10:19:36.154Z,98922.94
2023-01-29T10:20:51.666Z,98914.62
2023-01-29T10:22:07.039Z,98921.22
2023-01-29T10:23:27.865Z,98928.31
2023-01-29T10:24:53.702Z,98920.22
2023-01-29T10:25:57.142Z,98913.59
2023-01-29T10:27:01.335Z,98914.06
2023-01-29T10:28:14.882Z,98910.87
2023-01-29T10:29:22.273Z,98916.53
2023-01-29T10:30:44.840Z,98917.03
2023-01-29T10:31:57.427Z,98919.72
2023-01-29T10:33:05.106Z,98925.13
2023-01-29T10:34:32.606Z,98915.31
2023-01-29T10:36:00.552Z,98921.22
2023-01-29T10:37:33.790Z,98932.50
2023-01-29T10:38:45.373Z,98923.66
2023-01-29T10:39:48.608Z,98925.34
2023-01-29T10:41:17.797Z,98920.69
2023-01-29T10:42:31.585Z,98928.75
2023-01-29T10:44:08.733Z,98921.41
2023-01-29T10:45:33.898Z,98916.25
2023-01-29T10:47:02.082Z,98911.37
2023-01-29T10:48:17.216Z,98904.03
2023-01-29T10:49:49.716Z,98902.78
2023-01-29T10:51:05.817Z,98904.03
2023-01-29T10:52:14.632Z,98897.91
2023-01-29T10:53:43.973Z,98910.16
2023-01-29T10:54:59.574Z,98905.50
2023-01-29T10:56:22.653Z,98912.13
2023-01-29T10:57:47.886Z,98906.72
2023-01-29T10:59:08.110Z,98905.50
2023-01-29T11:00:24.168Z,98901.31
2023-01-29T11:01:27.468Z,98891.31
2023-01-29T11:02:30.600Z,98890.81
2023-01-29T11:03:34.595Z,98887.13
2023-01-29T11:04:38.190Z,98884.22
2023-01-29T11:05:52.328Z,98877.06
2023-01-29T11:06:55.410Z,98880.50
2023-01-29T11:08:07.459Z,98882.72
2023-01-29T11:09:24.180Z,98884.69
2023-01-29T11:10:28.177Z,98882.44
2023-01-29T11:11:54.884Z,98883.72
2023-01-29T11:12:59.475Z,98887.16
2023-01-29T11:14:09.216Z,98880.28
2023-01-29T11:15:28.511Z,98887.13
2023-01-29T11:16:33.887Z,98883.47
2023-01-29T11:17:37.331Z,98885.91
2023-01-29T11:18:56.515Z,98873.41
2023-01-29T11:19:59.688Z,98874.84
2023-01-29T11:21:05.519Z,98872.91
2023-01-29T11:22:20.522Z,98867.25
2023-01-29T11:23:45.628Z,98861.16
2023-01-29T11:25:10.354Z,98858.44
2023-01-29T11:26:18.457Z,98855.47
2023-01-29T11:27:26.767Z,98854.25
2023-01-29T11:28:46.563Z,98857.69
2023-01-29T11:29:50.532Z,98857.44
2023-01-29T11:30:54.553Z,98856.22
2023-01-29T11:31:59.714Z,98853.03
2023-01-29T11:33:23.923Z,98851.06
2023-01-29T11:34:31.541Z,98853.53
2023-01-29T11:35:36.662Z,98842.72
2023-01-29T11:36:45.260Z,98843.97
2023-01-29T11:37:49.110Z,98845.69
2023-01-29T11:39:19.820Z,98844.47
2023-01-29T11:40:43.743Z,98840.31
2023-01-29T11:41:58.058Z,98839.81
2023-01-29T11:43:31.145Z,98834.66
2023-01-29T11:44:40.270Z,98828.78
2023-01-29T11:45:44.161Z,98823.88
2023-01-29T11:46:49.849Z,98820.44
2023-01-29T11:47:57.851Z,98815.50
2023-01-29T11:49:14.408Z,98809.16
2023-01-29T11:50:30.329Z,98806.44
2023-01-29T11:51:39.397Z,98807.41
2023-01-29T11:52:44.452Z,98804.97
2023-01-29T11:53:54.152Z,98808.16
2023-01-29T11:55:02.702Z,98804.97
2023-01-29T11:56:26.115Z,98810.88
2023-01-29T11:57:38.375Z,98806.22
2023-01-29T11:58:42.727Z,98805.72
2023-01-29T11:59:51.172Z,98806.97
2023-01-29T12:00:56.857Z,98793.97
2023-01-29T12:02:34.541Z,98802.06
2023-01-29T12:03:44.182Z,98793.47
2023-01-29T12:04:48.298Z,98803.28
2023-01-29T12:06:00.671Z,98806.50
2023-01-29T12:07:04.345Z,98799.13
2023-01-29T12:08:19.286Z,98799.84
2023-01-29T12:09:28.531Z,98801.84
2023-01-29T12:10:38.437Z,98797.91
2023-01-29T12:11:41.627Z,98808.47
2023-01-29T12:12:45.139Z,98795.44
2023-01-29T12:13:58.558Z,98798.13
2023-01-29T12:15:27.859Z,98792.75
2023-01-29T12:16:40.369Z,98799.59
2023-01-29T12:17:52.050Z,98797.66
2023-01-29T12:19:08.010Z,98794.69
2023-01-29T12:20:23.587Z,98797.16
2023-01-29T12:21:37.651Z,98791.50
2023-01-29T12:22:56.834Z,98793.75
2023-01-29T12:24:07.313Z,98791.03
2023-01-29T12:25:21.702Z,98793.47
2023-01-29T12:26:36.126Z,98791.50
2023-01-29T12:27:58.342Z,98788.56
2023-01-29T12:29:35.255Z,98788.06
2023-01-29T12:30:52.685Z,98787.59
2023-01-29T12:32:29.297Z,98787.59
2023-01-29T12:34:08.219Z,98780.44
2023-01-29T12:35:21.531Z,98786.09
2023-01-29T12:36:31.574Z,98785.38
2023-01-29T12:37:54.677Z,98774.34
2023-01-29T12:38:59.560Z,98787.34
2023-01-29T12:40:03.216Z,98790.03
2023-01-29T12:41:41.560Z,98788.34
2023-01-29T12:42:55.404Z,98787.31
2023-01-29T12:44:06.865Z,98783.41
2023-01-29T12:45:11.201Z,98784.41
2023-01-29T12:46:22.745Z,98776.53
2023-01-29T12:47:36.190Z,98778.50
2023-01-29T12:48:44.323Z,98779.97
2023-01-29T12:49:53.022Z,98786.38
2023-01-29T12:51:05.495Z,98776.81
2023-01-29T12:52:45.452Z,98780.25
2023-01-29T12:53:53.648Z,98780.47
2023-01-29T12:55:02.139Z,98774.56
2023-01-29T12:56:12.672Z,98775.56
2023-01-29T12:57:30.489Z,98777.25
2023-01-29T12:58:42.323Z,98775.28
2023-01-29T13:00:02.453Z,98769.62
2023-01-29T13:01:38.462Z,98772.34
2023-01-29T13:02:56.179Z,98766.69
2023-01-29T13:04:23.281Z,98758.34
2023-01-29T13:05:50.875Z,98750.75
2023-01-29T13:07:01.104Z,98750.53
2023-01-29T13:08:11.647Z,98753.47
2023-01-29T13:09:21.135Z,98747.84
2023-01-29T13:10:40.960Z,98747.59
2023-01-29T13:12:01.395Z,98743.19
2023-01-29T13:13:16.745Z,98750.28
2023-01-29T13:14:24.412Z,98749.81
2023-01-29T13:15:40.167Z,98739.75
2023-01-29T13:16:48.112Z,98735.56
2023-01-29T13:18:03.501Z,98738.72
2023-01-29T13:19:42.151Z,98723.53
2023-01-29T13:20:49.083Z,98743.87
2023-01-29T13:21:57.172Z,98727.91
2023-01-29T13:23:21.342Z,98736.03
2023-01-29T13:24:26.961Z,98724.00
2023-01-29T13:25:30.280Z,98734.06
2023-01-29T13:26:34.847Z,98730.41
2023-01-29T13:27:39.990Z,98724.00
2023-01-29T13:28:45.960Z,98718.16
2023-01-29T13:29:49.918Z,98717.88
2023-01-29T13:31:14.099Z,98713.97
2023-01-29T13:32:25.548Z,98712.47
2023-01-29T13:33:29.208Z,98713.44
2023-01-29T13:34:44.605Z,98715.16
2023-01-29T13:35:48.038Z,98716.38
2023-01-29T13:36:54.879Z,98712.00
2023-01-29T13:37:58.399Z,98723.28
2023-01-29T13:39:07.062Z,98723.78
2023-01-29T13:40:30.850Z,98723.78
2023-01-29T13:41:40.443Z,98720.56
2023-01-29T13:42:49.441Z,98723.53
2023-01-29T13:43:52.868Z,98723.75
2023-01-29T13:44:57.948Z,98718.84
2023-01-29T13:46:15.467Z,98719.56
2023-01-29T13:47:29.367Z,98723.00
2023-01-29T13:48:37.205Z,98719.56